CDT,Max TemperatureF,Mean TemperatureF,Min TemperatureF,Max Dew PointF,MeanDew PointF,Min DewpointF,Max Humidity, Mean Humidity, Min Humidity, Max Sea Level PressureIn, Mean Sea Level PressureIn, Min Sea Level PressureIn, Max VisibilityMiles, Mean VisibilityMiles, Min VisibilityMiles, Max Wind SpeedMPH, Mean Wind SpeedMPH, Max Gust SpeedMPH,PrecipitationIn, CloudCover, Events, WindDirDegrees
2012-9-1,87,79,71,68,65,64,84,66,48,29.93,29.89,29.86,10,10,10,23,11,38,T,4,Rain,256
2012-9-2,92,80,68,68,66,64,93,67,41,29.95,29.90,29.86,10,10,10,15,6,20,0.00,0,,297
2012-9-3,99,83,67,72,68,65,87,61,35,29.93,29.89,29.84,10,10,10,14,4,17,0.00,0,,323
2012-9-4,99,85,71,72,67,60,93,62,31,29.92,29.87,29.82,10,10,10,12,4,15,0.00,0,,148
2012-9-5,97,85,73,67,64,58,74,51,27,29.87,29.82,29.78,10,10,10,8,6,13,0.00,0,,261
2012-9-6,97,83,69,70,67,64,90,63,35,30.03,29.92,29.86,10,9,1,20,5,37,0.55,2,Rain-Thunderstorm,137
2012-9-7,96,80,64,70,67,62,93,64,34,29.96,29.85,29.70,10,8,2,23,9,32,0.55,4,Rain-Thunderstorm,264
2012-9-8,74,65,56,63,52,44,93,64,35,30.10,30.04,29.95,10,10,10,18,7,25,0.00,2,,319
2012-9-9,83,68,53,52,49,45,80,54,28,30.13,30.08,30.04,10,10,10,15,6,20,0.00,0,,304
2012-9-10,80,67,53,54,52,50,93,66,39,30.20,30.13,30.08,10,10,10,13,5,17,0.00,0,,131
2012-9-11,86,71,56,60,56,53,93,64,34,30.14,30.10,30.04,10,10,10,14,6,24,0.00,0,,142
2012-9-12,84,72,59,59,57,54,84,61,37,30.17,30.10,30.06,10,10,8,17,7,22,0.00,0,,148
2012-9-13,88,74,59,63,59,54,90,61,31,30.20,30.14,30.08,10,10,9,12,6,17,T,2,,116
2012-9-14,64,62,60,63,59,55,100,89,78,30.28,30.24,30.18,10,8,2,10,5,14,0.18,8,Rain,34
2012-9-15,65,63,61,63,62,60,100,97,93,30.26,30.17,30.11,10,3,0,12,5,14,0.59,8,Fog-Rain,87
2012-9-16,73,68,62,66,64,62,100,90,79,30.12,30.06,29.99,10,5,0,6,1,15,0.02,7,Fog-Rain,131
2012-9-17,72,67,62,65,64,62,100,87,73,30.01,29.94,29.83,10,5,0,6,2,22,T,6,Fog-Rain,345
2012-9-18,70,60,50,63,49,39,93,63,33,30.11,30.01,29.86,10,10,9,16,7,24,T,3,Rain,334
2012-9-19,78,62,46,49,46,43,93,63,33,30.15,30.09,30.01,10,10,10,16,7,23,0.00,0,,156
2012-9-20,84,71,57,56,52,49,77,56,34,30.02,29.99,29.96,10,10,10,17,5,23,0.00,0,,142
2012-9-21,85,72,58,59,56,52,90,64,37,30.05,29.93,29.85,10,10,10,18,8,26,0.01,2,Rain-Thunderstorm,224
2012-9-22,83,67,51,49,45,38,77,50,23,30.20,30.09,29.96,10,10,10,13,4,21,0.00,0,,323
2012-9-23,71,58,45,43,40,36,89,61,33,30.32,30.25,30.20,10,10,10,12,3,15,0.00,1,,113
2012-9-24,79,66,52,59,49,42,77,58,38,30.22,30.10,29.96,10,10,10,21,11,29,T,0,,155
2012-9-25,90,79,67,63,59,53,76,54,32,29.97,29.91,29.86,10,10,10,21,11,31,0.00,0,,199
2012-9-26,79,72,64,66,64,61,93,76,58,30.08,30.00,29.91,10,10,10,16,6,21,0.03,3,Rain-Thunderstorm,164
2012-9-27,79,70,61,66,63,61,100,80,60,30.16,30.10,30.04,10,6,0,12,4,15,0.10,4,Fog-Rain-Thunderstorm,242
2012-9-28,79,72,65,66,65,63,100,80,60,30.15,30.09,30.03,10,6,0,10,3,13,T,6,Fog-Rain,57
2012-9-29,73,67,60,66,60,55,100,81,61,30.11,30.05,29.98,10,8,1,9,4,13,0.27,5,Rain,69
2012-9-30,68,62,56,55,54,53,93,78,63,29.97,29.91,29.83,10,10,7,8,2,12,0.00,0,,344